sensor_id;sensor_type;location;lat;lon;timestamp;pressure;altitude;pressure_sealevel;temperature;humidity
5283;BME280;15376;48.540;9.268;2022-07-22T00:00:50;97844.44;;;17.09;100.00
5283;BME280;15376;48.540;9.268;2022-07-22T00:03:16;97848.19;;;17.02;100.00
5283;BME280;15376;48.540;9.268;2022-07-22T00:05:41;97845.69;;;17.07;100.00
5283;BME280;15376;48.540;9.268;2022-07-22T00:08:06;97843.66;;;17.02;100.00
5283;BME280;15376;48.540;9.268;2022-07-22T00:10:32;97843.31;;;16.85;100.00
5283;BME280;15376;48.540;9.268;2022-07-22T00:12:57;97844.03;;;16.67;100.00
5283;BME280;15376;48.540;9.268;2022-07-22T00:15:23;97837.25;;;16.65;100.00
5283;BME280;15376;48.540;9.268;2022-07-22T00:17:48;97836.81;;;16.68;100.00
5283;BME280;15376;48.540;9.268;2022-07-22T00:20:13;97836.72;;;16.81;100.00
5283;BME280;15376;48.540;9.268;2022-07-22T00:22:39;97830.50;;;16.87;100.00
5283;BME280;15376;48.540;9.268;2022-07-22T00:25:05;97828.47;;;16.83;100.00
5283;BME280;15376;48.540;9.268;2022-07-22T00:27:30;97831.72;;;16.91;100.00
5283;BME280;15376;48.540;9.268;2022-07-22T00:29:55;97830.06;;;16.97;100.00
5283;BME280;15376;48.540;9.268;2022-07-22T00:32:21;97815.22;;;16.94;100.00
5283;BME280;15376;48.540;9.268;2022-07-22T00:34:47;97827.56;;;17.02;100.00
5283;BME280;15376;48.540;9.268;2022-07-22T00:37:13;97830.84;;;17.04;100.00
5283;BME280;15376;48.540;9.268;2022-07-22T00:39:38;97817.25;;;16.99;100.00
5283;BME280;15376;48.540;9.268;2022-07-22T00:42:03;97825.09;;;17.00;100.00
5283;BME280;15376;48.540;9.268;2022-07-22T00:44:29;97831.88;;;17.03;100.00
5283;BME280;15376;48.540;9.268;2022-07-22T00:46:54;97815.47;;;16.86;100.00
5283;BME280;15376;48.540;9.268;2022-07-22T00:49:19;97800.66;;;16.77;100.00
5283;BME280;15376;48.540;9.268;2022-07-22T00:51:46;97821.03;;;16.85;100.00
5283;BME280;15376;48.540;9.268;2022-07-22T00:54:12;97833.00;;;16.82;100.00
5283;BME280;15376;48.540;9.268;2022-07-22T00:56:37;97828.56;;;16.63;100.00
5283;BME280;15376;48.540;9.268;2022-07-22T00:59:06;97819.38;;;16.39;100.00
5283;BME280;15376;48.540;9.268;2022-07-22T01:01:32;97830.31;;;16.38;100.00
5283;BME280;15376;48.540;9.268;2022-07-22T01:03:58;97828.47;;;16.31;100.00
5283;BME280;15376;48.540;9.268;2022-07-22T01:06:23;97823.53;;;16.28;100.00
5283;BME280;15376;48.540;9.268;2022-07-22T01:08:48;97782.31;;;16.16;100.00
5283;BME280;15376;48.540;9.268;2022-07-22T01:11:19;97820.16;;;16.40;100.00
5283;BME280;15376;48.540;9.268;2022-07-22T01:13:46;97816.09;;;16.30;100.00
5283;BME280;15376;48.540;9.268;2022-07-22T01:16:12;97817.78;;;16.18;100.00
5283;BME280;15376;48.540;9.268;2022-07-22T01:18:39;97791.69;;;15.94;100.00
5283;BME280;15376;48.540;9.268;2022-07-22T01:21:05;97817.22;;;15.96;100.00
5283;BME280;15376;48.540;9.268;2022-07-22T01:23:31;97802.19;;;15.89;100.00
5283;BME280;15376;48.540;9.268;2022-07-22T01:25:57;97819.69;;;15.85;100.00
5283;BME280;15376;48.540;9.268;2022-07-22T01:28:23;97808.38;;;15.70;100.00
5283;BME280;15376;48.540;9.268;2022-07-22T01:30:49;97821.16;;;15.67;100.00
5283;BME280;15376;48.540;9.268;2022-07-22T01:33:16;97812.53;;;15.59;100.00
5283;BME280;15376;48.540;9.268;2022-07-22T01:35:43;97813.53;;;15.64;100.00
5283;BME280;15376;48.540;9.268;2022-07-22T01:38:08;97812.09;;;15.62;100.00
5283;BME280;15376;48.540;9.268;2022-07-22T01:40:34;97812.69;;;15.64;100.00
5283;BME280;15376;48.540;9.268;2022-07-22T01:42:59;97810.44;;;15.61;100.00
5283;BME280;15376;48.540;9.268;2022-07-22T01:45:24;97811.06;;;15.50;100.00
5283;BME280;15376;48.540;9.268;2022-07-22T01:47:50;97813.94;;;15.42;100.00
5283;BME280;15376;48.540;9.268;2022-07-22T01:50:15;97811.84;;;15.37;100.00
5283;BME280;15376;48.540;9.268;2022-07-22T01:52:41;97813.09;;;15.34;100.00
5283;BME280;15376;48.540;9.268;2022-07-22T01:55:08;97814.34;;;15.45;100.00
5283;BME280;15376;48.540;9.268;2022-07-22T01:57:33;97816.44;;;15.56;100.00
5283;BME280;15376;48.540;9.268;2022-07-22T02:00:00;97818.47;;;15.74;100.00
5283;BME280;15376;48.540;9.268;2022-07-22T02:02:25;97810.22;;;15.82;100.00
5283;BME280;15376;48.540;9.268;2022-07-22T02:04:51;97813.50;;;15.91;100.00
5283;BME280;15376;48.540;9.268;2022-07-22T02:07:16;97814.97;;;15.87;100.00
5283;BME280;15376;48.540;9.268;2022-07-22T02:09:41;97801.56;;;15.87;100.00
5283;BME280;15376;48.540;9.268;2022-07-22T02:12:07;97822.38;;;15.85;100.00
5283;BME280;15376;48.540;9.268;2022-07-22T02:14:34;97814.34;;;15.78;100.00
5283;BME280;15376;48.540;9.268;2022-07-22T02:16:59;97819.28;;;15.81;100.00
5283;BME280;15376;48.540;9.268;2022-07-22T02:19:24;97816.00;;;15.73;100.00
5283;BME280;15376;48.540;9.268;2022-07-22T02:21:50;97815.41;;;15.57;100.00
5283;BME280;15376;48.540;9.268;2022-07-22T02:24:15;97812.53;;;15.59;100.00
5283;BME280;15376;48.540;9.268;2022-07-22T02:26:41;97807.34;;;15.71;100.00
5283;BME280;15376;48.540;9.268;2022-07-22T02:29:06;97808.78;;;15.80;100.00
5283;BME280;15376;48.540;9.268;2022-07-22T02:31:31;97806.94;;;15.80;100.00
5283;BME280;15376;48.540;9.268;2022-07-22T02:33:57;97803.63;;;15.78;100.00
5283;BME280;15376;48.540;9.268;2022-07-22T02:36:22;97798.28;;;15.72;100.00
5283;BME280;15376;48.540;9.268;2022-07-22T02:38:48;97782.44;;;15.63;100.00
5283;BME280;15376;48.540;9.268;2022-07-22T02:41:13;97801.38;;;15.55;100.00
5283;BME280;15376;48.540;9.268;2022-07-22T02:43:39;97791.69;;;15.34;100.00
5283;BME280;15376;48.540;9.268;2022-07-22T02:46:04;97797.84;;;15.22;100.00
5283;BME280;15376;48.540;9.268;2022-07-22T02:48:29;97798.06;;;15.14;100.00
5283;BME280;15376;48.540;9.268;2022-07-22T02:50:55;97785.06;;;14.97;100.00
5283;BME280;15376;48.540;9.268;2022-07-22T02:53:20;97773.94;;;14.87;100.00
5283;BME280;15376;48.540;9.268;2022-07-22T02:55:46;97791.66;;;15.01;100.00
5283;BME280;15376;48.540;9.268;2022-07-22T02:58:11;97780.50;;;14.85;100.00
5283;BME280;15376;48.540;9.268;2022-07-22T03:00:37;97781.31;;;14.72;100.00
5283;BME280;15376;48.540;9.268;2022-07-22T03:03:05;97795.72;;;14.71;100.00
5283;BME280;15376;48.540;9.268;2022-07-22T03:05:31;97785.41;;;14.61;100.00
5283;BME280;15376;48.540;9.268;2022-07-22T03:07:56;97798.19;;;14.73;100.00
5283;BME280;15376;48.540;9.268;2022-07-22T03:10:22;97797.38;;;14.85;100.00
5283;BME280;15376;48.540;9.268;2022-07-22T03:12:47;97786.50;;;14.93;100.00
5283;BME280;15376;48.540;9.268;2022-07-22T03:15:13;97799.09;;;15.13;100.00
5283;BME280;15376;48.540;9.268;2022-07-22T03:17:38;97777.28;;;15.09;100.00
5283;BME280;15376;48.540;9.268;2022-07-22T03:20:06;97773.56;;;15.10;100.00
5283;BME280;15376;48.540;9.268;2022-07-22T03:22:32;97783.47;;;15.16;100.00
5283;BME280;15376;48.540;9.268;2022-07-22T03:24:57;97794.16;;;15.29;100.00
5283;BME280;15376;48.540;9.268;2022-07-22T03:27:23;97797.66;;;15.37;100.00
5283;BME280;15376;48.540;9.268;2022-07-22T03:29:48;97800.13;;;15.38;100.00
5283;BME280;15376;48.540;9.268;2022-07-22T03:32:14;97786.13;;;15.23;100.00
5283;BME280;15376;48.540;9.268;2022-07-22T03:34:39;97792.91;;;15.25;100.00
5283;BME280;15376;48.540;9.268;2022-07-22T03:37:04;97808.97;;;15.19;100.00
5283;BME280;15376;48.540;9.268;2022-07-22T03:39:30;97816.59;;;15.15;100.00
5283;BME280;15376;48.540;9.268;2022-07-22T03:41:55;97804.84;;;15.10;100.00
5283;BME280;15376;48.540;9.268;2022-07-22T03:44:21;97783.41;;;14.96;100.00
5283;BME280;15376;48.540;9.268;2022-07-22T03:46:46;97797.63;;;15.04;100.00
5283;BME280;15376;48.540;9.268;2022-07-22T03:49:11;97806.91;;;15.14;100.00
5283;BME280;15376;48.540;9.268;2022-07-22T03:51:37;97809.16;;;15.11;100.00
5283;BME280;15376;48.540;9.268;2022-07-22T03:54:02;97809.97;;;15.05;100.00
5283;BME280;15376;48.540;9.268;2022-07-22T03:56:28;97805.25;;;15.00;100.00
5283;BME280;15376;48.540;9.268;2022-07-22T03:58:53;97807.72;;;15.01;100.00
5283;BME280;15376;48.540;9.268;2022-07-22T04:01:18;97811.00;;;15.04;100.00
5283;BME280;15376;48.540;9.268;2022-07-22T04:03:44;97815.56;;;15.10;100.00
5283;BME280;15376;48.540;9.268;2022-07-22T04:06:09;97818.00;;;15.05;100.00
5283;BME280;15376;48.540;9.268;2022-07-22T04:08:35;97808.94;;;14.99;100.00
5283;BME280;15376;48.540;9.268;2022-07-22T04:11:00;97800.88;;;14.79;100.00
5283;BME280;15376;48.540;9.268;2022-07-22T04:13:25;97809.53;;;14.94;100.00
5283;BME280;15376;48.540;9.268;2022-07-22T04:15:51;97808.56;;;15.09;100.00
5283;BME280;15376;48.540;9.268;2022-07-22T04:18:16;97809.38;;;15.29;100.00
5283;BME280;15376;48.540;9.268;2022-07-22T04:20:42;97802.38;;;15.34;100.00
5283;BME280;15376;48.540;9.268;2022-07-22T04:23:08;97803.22;;;15.35;100.00
5283;BME280;15376;48.540;9.268;2022-07-22T04:25:33;97808.16;;;15.31;100.00
5283;BME280;15376;48.540;9.268;2022-07-22T04:27:59;97777.69;;;15.19;100.00
5283;BME280;15376;48.540;9.268;2022-07-22T04:30:25;97790.22;;;15.25;100.00
5283;BME280;15376;48.540;9.268;2022-07-22T04:32:50;97796.63;;;15.38;100.00
5283;BME280;15376;48.540;9.268;2022-07-22T04:35:16;97794.56;;;15.46;100.00
5283;BME280;15376;48.540;9.268;2022-07-22T04:37:41;97774.59;;;15.42;100.00
5283;BME280;15376;48.540;9.268;2022-07-22T04:40:07;97771.94;;;15.42;100.00
5283;BME280;15376;48.540;9.268;2022-07-22T04:42:33;97762.47;;;15.46;100.00
5283;BME280;15376;48.540;9.268;2022-07-22T04:44:58;97797.03;;;15.74;100.00
5283;BME280;15376;48.540;9.268;2022-07-22T04:47:23;97801.16;;;15.83;100.00
5283;BME280;15376;48.540;9.268;2022-07-22T04:49:49;97780.56;;;15.77;100.00
5283;BME280;15376;48.540;9.268;2022-07-22T04:52:14;97790.25;;;15.85;100.00
5283;BME280;15376;48.540;9.268;2022-07-22T04:54:39;97794.97;;;15.83;100.00
5283;BME280;15376;48.540;9.268;2022-07-22T04:57:05;97796.22;;;15.87;100.00
5283;BME280;15376;48.540;9.268;2022-07-22T04:59:30;97796.81;;;15.95;100.00
5283;BME280;15376;48.540;9.268;2022-07-22T05:01:56;97784.63;;;15.99;100.00
5283;BME280;15376;48.540;9.268;2022-07-22T05:04:21;97797.78;;;16.21;100.00
5283;BME280;15376;48.540;9.268;2022-07-22T05:06:46;97788.88;;;16.33;100.00
5283;BME280;15376;48.540;9.268;2022-07-22T05:09:12;97775.47;;;16.33;100.00
5283;BME280;15376;48.540;9.268;2022-07-22T05:11:37;97796.41;;;16.56;100.00
5283;BME280;15376;48.540;9.268;2022-07-22T05:14:02;97795.38;;;16.64;100.00
5283;BME280;15376;48.540;9.268;2022-07-22T05:16:28;97800.06;;;16.75;100.00
5283;BME280;15376;48.540;9.268;2022-07-22T05:18:53;97795.03;;;16.85;100.00
5283;BME280;15376;48.540;9.268;2022-07-22T05:21:18;97797.47;;;16.93;100.00
5283;BME280;15376;48.540;9.268;2022-07-22T05:23:44;97774.34;;;16.92;100.00
5283;BME280;15376;48.540;9.268;2022-07-22T05:26:09;97793.06;;;17.06;100.00
5283;BME280;15376;48.540;9.268;2022-07-22T05:28:34;97794.06;;;17.11;100.00
5283;BME280;15376;48.540;9.268;2022-07-22T05:31:00;97792.31;;;17.23;100.00
5283;BME280;15376;48.540;9.268;2022-07-22T05:33:25;97786.84;;;17.37;100.00
5283;BME280;15376;48.540;9.268;2022-07-22T05:35:51;97785.09;;;17.49;100.00
5283;BME280;15376;48.540;9.268;2022-07-22T05:38:17;97794.28;;;17.59;100.00
5283;BME280;15376;48.540;9.268;2022-07-22T05:40:42;97789.88;;;17.72;100.00
5283;BME280;15376;48.540;9.268;2022-07-22T05:43:07;97784.53;;;17.90;100.00
5283;BME280;15376;48.540;9.268;2022-07-22T05:45:33;97780.44;;;18.06;100.00
5283;BME280;15376;48.540;9.268;2022-07-22T05:47:58;97781.13;;;18.19;100.00
5283;BME280;15376;48.540;9.268;2022-07-22T05:50:24;97773.50;;;18.35;100.00
5283;BME280;15376;48.540;9.268;2022-07-22T05:52:49;97783.34;;;18.41;100.00
5283;BME280;15376;48.540;9.268;2022-07-22T05:55:15;97783.56;;;18.57;100.00
5283;BME280;15376;48.540;9.268;2022-07-22T05:57:40;97750.09;;;18.53;100.00
5283;BME280;15376;48.540;9.268;2022-07-22T06:00:06;97775.25;;;18.59;100.00
5283;BME280;15376;48.540;9.268;2022-07-22T06:02:32;97788.75;;;18.89;100.00
5283;BME280;15376;48.540;9.268;2022-07-22T06:04:58;97781.31;;;19.03;100.00
5283;BME280;15376;48.540;9.268;2022-07-22T06:07:26;97785.31;;;19.12;100.00
5283;BME280;15376;48.540;9.268;2022-07-22T06:09:51;97787.94;;;19.30;100.00
5283;BME280;15376;48.540;9.268;2022-07-22T06:12:17;97781.50;;;19.43;100.00
5283;BME280;15376;48.540;9.268;2022-07-22T06:14:42;97785.91;;;19.55;100.00
5283;BME280;15376;48.540;9.268;2022-07-22T06:17:08;97796.09;;;19.65;100.00
5283;BME280;15376;48.540;9.268;2022-07-22T06:19:33;97791.50;;;19.65;100.00
5283;BME280;15376;48.540;9.268;2022-07-22T06:21:58;97791.41;;;19.84;100.00
5283;BME280;15376;48.540;9.268;2022-07-22T06:24:24;97790.38;;;19.85;100.00
5283;BME280;15376;48.540;9.268;2022-07-22T06:26:49;97786.94;;;20.01;100.00
5283;BME280;15376;48.540;9.268;2022-07-22T06:29:15;97786.22;;;20.06;100.00
5283;BME280;15376;48.540;9.268;2022-07-22T06:31:40;97792.69;;;20.16;100.00
5283;BME280;15376;48.540;9.268;2022-07-22T06:34:06;97777.78;;;20.02;100.00
5283;BME280;15376;48.540;9.268;2022-07-22T06:36:32;97786.69;;;20.03;100.00
5283;BME280;15376;48.540;9.268;2022-07-22T06:38:57;97783.78;;;20.04;100.00
5283;BME280;15376;48.540;9.268;2022-07-22T06:41:23;97779.50;;;20.43;100.00
5283;BME280;15376;48.540;9.268;2022-07-22T06:43:48;97775.50;;;20.46;100.00
5283;BME280;15376;48.540;9.268;2022-07-22T06:46:13;97788.16;;;20.57;100.00
5283;BME280;15376;48.540;9.268;2022-07-22T06:48:39;97791.28;;;20.77;100.00
5283;BME280;15376;48.540;9.268;2022-07-22T06:51:04;97802.09;;;20.66;100.00
5283;BME280;15376;48.540;9.268;2022-07-22T06:53:30;97780.84;;;20.69;100.00
5283;BME280;15376;48.540;9.268;2022-07-22T06:55:55;97785.00;;;20.88;100.00
5283;BME280;15376;48.540;9.268;2022-07-22T06:58:21;97794.59;;;20.96;100.00
5283;BME280;15376;48.540;9.268;2022-07-22T07:00:46;97779.97;;;21.09;100.00
5283;BME280;15376;48.540;9.268;2022-07-22T07:03:12;97780.22;;;21.07;100.00
5283;BME280;15376;48.540;9.268;2022-07-22T07:05:37;97772.84;;;21.19;100.00
5283;BME280;15376;48.540;9.268;2022-07-22T07:08:03;97766.94;;;21.34;100.00
5283;BME280;15376;48.540;9.268;2022-07-22T07:10:28;97773.63;;;21.32;100.00
5283;BME280;15376;48.540;9.268;2022-07-22T07:12:57;97774.97;;;21.46;100.00
5283;BME280;15376;48.540;9.268;2022-07-22T07:15:26;97778.56;;;21.35;100.00
5283;BME280;15376;48.540;9.268;2022-07-22T07:17:53;97768.34;;;21.53;100.00
5283;BME280;15376;48.540;9.268;2022-07-22T07:20:19;97769.63;;;21.68;99.12
5283;BME280;15376;48.540;9.268;2022-07-22T07:22:45;97771.84;;;21.37;100.00
5283;BME280;15376;48.540;9.268;2022-07-22T07:25:10;97763.47;;;21.72;100.00
5283;BME280;15376;48.540;9.268;2022-07-22T07:27:35;97764.75;;;22.03;99.29
5283;BME280;15376;48.540;9.268;2022-07-22T07:30:03;97759.56;;;22.18;99.35
5283;BME280;15376;48.540;9.268;2022-07-22T07:32:29;97749.81;;;22.17;98.03
5283;BME280;15376;48.540;9.268;2022-07-22T07:34:54;97754.09;;;22.13;98.29
5283;BME280;15376;48.540;9.268;2022-07-22T07:37:20;97735.78;;;22.20;98.10
5283;BME280;15376;48.540;9.268;2022-07-22T07:39:45;97747.88;;;22.35;97.78
5283;BME280;15376;48.540;9.268;2022-07-22T07:42:10;97729.41;;;22.10;97.80
5283;BME280;15376;48.540;9.268;2022-07-22T07:44:36;97736.41;;;22.27;97.78
5283;BME280;15376;48.540;9.268;2022-07-22T07:47:01;97722.09;;;22.54;97.64
5283;BME280;15376;48.540;9.268;2022-07-22T07:49:27;97724.69;;;22.44;98.36
5283;BME280;15376;48.540;9.268;2022-07-22T07:51:52;97716.38;;;22.50;96.34
5283;BME280;15376;48.540;9.268;2022-07-22T07:54:18;97730.41;;;22.69;97.43
5283;BME280;15376;48.540;9.268;2022-07-22T07:56:44;97736.59;;;22.43;96.72
5283;BME280;15376;48.540;9.268;2022-07-22T07:59:09;97729.66;;;22.52;97.16
5283;BME280;15376;48.540;9.268;2022-07-22T08:01:35;97730.22;;;22.76;95.68
5283;BME280;15376;48.540;9.268;2022-07-22T08:04:00;97732.28;;;22.90;94.34
5283;BME280;15376;48.540;9.268;2022-07-22T08:06:25;97726.59;;;22.92;95.09
5283;BME280;15376;48.540;9.268;2022-07-22T08:08:51;97720.94;;;22.93;93.85
5283;BME280;15376;48.540;9.268;2022-07-22T08:11:17;97727.47;;;22.98;96.91
5283;BME280;15376;48.540;9.268;2022-07-22T08:13:42;97722.41;;;23.06;94.17
5283;BME280;15376;48.540;9.268;2022-07-22T08:16:08;97723.34;;;23.22;95.02
5283;BME280;15376;48.540;9.268;2022-07-22T08:18:33;97714.13;;;23.23;94.37
5283;BME280;15376;48.540;9.268;2022-07-22T08:20:59;97719.56;;;23.23;94.97
5283;BME280;15376;48.540;9.268;2022-07-22T08:23:24;97711.03;;;23.41;95.30
5283;BME280;15376;48.540;9.268;2022-07-22T08:25:50;97711.13;;;23.51;94.66
5283;BME280;15376;48.540;9.268;2022-07-22T08:28:15;97710.31;;;23.51;93.68
5283;BME280;15376;48.540;9.268;2022-07-22T08:30:41;97715.78;;;23.24;94.86
5283;BME280;15376;48.540;9.268;2022-07-22T08:33:08;97719.03;;;23.26;94.60
5283;BME280;15376;48.540;9.268;2022-07-22T08:35:34;97694.69;;;23.31;94.81
5283;BME280;15376;48.540;9.268;2022-07-22T08:37:59;97686.22;;;23.22;94.68
5283;BME280;15376;48.540;9.268;2022-07-22T08:40:25;97707.28;;;23.47;94.23
5283;BME280;15376;48.540;9.268;2022-07-22T08:42:52;97704.53;;;23.42;94.23
5283;BME280;15376;48.540;9.268;2022-07-22T08:45:18;97700.25;;;23.46;94.00
5283;BME280;15376;48.540;9.268;2022-07-22T08:47:45;97656.72;;;23.26;94.08
5283;BME280;15376;48.540;9.268;2022-07-22T08:50:11;97694.69;;;23.68;92.05
5283;BME280;15376;48.540;9.268;2022-07-22T08:52:37;97686.09;;;23.76;91.32
5283;BME280;15376;48.540;9.268;2022-07-22T08:55:04;97684.75;;;23.79;90.10
5283;BME280;15376;48.540;9.268;2022-07-22T08:57:30;97686.94;;;23.82;92.10
5283;BME280;15376;48.540;9.268;2022-07-22T08:59:57;97682.13;;;23.94;92.60
5283;BME280;15376;48.540;9.268;2022-07-22T09:02:23;97684.84;;;24.04;91.52
5283;BME280;15376;48.540;9.268;2022-07-22T09:04:59;97681.41;;;24.19;90.03
5283;BME280;15376;48.540;9.268;2022-07-22T09:07:30;97678.75;;;24.29;88.23
5283;BME280;15376;48.540;9.268;2022-07-22T09:09:57;97682.81;;;24.26;89.62
5283;BME280;15376;48.540;9.268;2022-07-22T09:12:23;97679.06;;;24.33;89.21
5283;BME280;15376;48.540;9.268;2022-07-22T09:14:52;97675.00;;;24.50;89.48
5283;BME280;15376;48.540;9.268;2022-07-22T09:17:35;97675.03;;;24.60;88.56
5283;BME280;15376;48.540;9.268;2022-07-22T09:20:04;97673.69;;;24.63;87.75
5283;BME280;15376;48.540;9.268;2022-07-22T09:22:38;97673.72;;;24.68;89.00
5283;BME280;15376;48.540;9.268;2022-07-22T09:25:33;97670.97;;;24.63;87.80
5283;BME280;15376;48.540;9.268;2022-07-22T09:30:30;97675.41;;;25.15;87.02
5283;BME280;15376;48.540;9.268;2022-07-22T09:32:56;97668.03;;;25.31;84.00
5283;BME280;15376;48.540;9.268;2022-07-22T09:35:22;97672.66;;;25.25;87.18
5283;BME280;15376;48.540;9.268;2022-07-22T09:37:54;97670.50;;;25.52;83.68
5283;BME280;15376;48.540;9.268;2022-07-22T09:40:26;97655.22;;;25.67;86.96
5283;BME280;15376;48.540;9.268;2022-07-22T09:42:54;97657.41;;;25.75;83.62
5283;BME280;15376;48.540;9.268;2022-07-22T09:45:21;97664.75;;;25.69;82.34
5283;BME280;15376;48.540;9.268;2022-07-22T09:47:48;97662.78;;;25.95;82.82
5283;BME280;15376;48.540;9.268;2022-07-22T09:50:15;97657.53;;;26.09;80.40
5283;BME280;15376;48.540;9.268;2022-07-22T09:52:41;97650.72;;;26.11;81.57
5283;BME280;15376;48.540;9.268;2022-07-22T09:55:08;97650.94;;;26.25;80.01
5283;BME280;15376;48.540;9.268;2022-07-22T09:57:34;97637.03;;;26.37;79.87
5283;BME280;15376;48.540;9.268;2022-07-22T09:59:59;97642.69;;;26.45;78.28
5283;BME280;15376;48.540;9.268;2022-07-22T10:02:25;97632.59;;;26.46;78.85
5283;BME280;15376;48.540;9.268;2022-07-22T10:04:52;97635.06;;;26.42;76.91
5283;BME280;15376;48.540;9.268;2022-07-22T10:07:19;97625.97;;;26.62;76.20
5283;BME280;15376;48.540;9.268;2022-07-22T10:09:46;97618.38;;;26.59;76.46
5283;BME280;15376;48.540;9.268;2022-07-22T10:12:12;97618.41;;;26.49;75.25
5283;BME280;15376;48.540;9.268;2022-07-22T10:14:38;97620.78;;;26.66;75.80
5283;BME280;15376;48.540;9.268;2022-07-22T10:17:03;97602.19;;;27.12;73.64
5283;BME280;15376;48.540;9.268;2022-07-22T10:19:29;97619.59;;;28.16;71.23
5283;BME280;15376;48.540;9.268;2022-07-22T10:21:55;97610.09;;;28.89;65.71
5283;BME280;15376;48.540;9.268;2022-07-22T10:24:20;97606.16;;;29.88;64.63
5283;BME280;15376;48.540;9.268;2022-07-22T10:29:41;97607.13;;;31.98;55.90
5283;BME280;15376;48.540;9.268;2022-07-22T10:34:44;97598.19;;;32.66;50.83
5283;BME280;15376;48.540;9.268;2022-07-22T10:40:16;97597.47;;;34.15;49.49
5283;BME280;15376;48.540;9.268;2022-07-22T10:45:24;97589.59;;;34.55;43.41
5283;BME280;15376;48.540;9.268;2022-07-22T10:50:46;97577.84;;;35.90;39.83
5283;BME280;15376;48.540;9.268;2022-07-22T10:53:20;97584.16;;;36.15;41.88
5283;BME280;15376;48.540;9.268;2022-07-22T10:56:03;97579.28;;;34.43;41.97
5283;BME280;15376;48.540;9.268;2022-07-22T11:00:59;97574.47;;;35.27;41.32
5283;BME280;15376;48.540;9.268;2022-07-22T11:03:28;97561.91;;;36.11;43.79
5283;BME280;15376;48.540;9.268;2022-07-22T11:05:54;97565.28;;;37.41;37.52
5283;BME280;15376;48.540;9.268;2022-07-22T11:08:21;97556.50;;;38.17;35.24
5283;BME280;15376;48.540;9.268;2022-07-22T11:10:50;97571.03;;;37.20;37.29
5283;BME280;15376;48.540;9.268;2022-07-22T11:16:22;97571.50;;;36.78;36.51
5283;BME280;15376;48.540;9.268;2022-07-22T11:18:57;97558.81;;;37.21;37.46
5283;BME280;15376;48.540;9.268;2022-07-22T11:21:27;97557.31;;;36.67;37.96
5283;BME280;15376;48.540;9.268;2022-07-22T11:23:57;97549.34;;;36.38;37.90
5283;BME280;15376;48.540;9.268;2022-07-22T11:26:35;97534.16;;;36.07;37.00
5283;BME280;15376;48.540;9.268;2022-07-22T11:29:02;97532.97;;;36.21;39.12
5283;BME280;15376;48.540;9.268;2022-07-22T11:31:28;97543.94;;;36.69;37.56
5283;BME280;15376;48.540;9.268;2022-07-22T11:34:07;97530.88;;;36.98;35.90
5283;BME280;15376;48.540;9.268;2022-07-22T11:36:35;97532.41;;;37.70;34.86
5283;BME280;15376;48.540;9.268;2022-07-22T11:39:01;97537.81;;;36.24;36.20
5283;BME280;15376;48.540;9.268;2022-07-22T11:41:29;97534.38;;;35.66;37.60
5283;BME280;15376;48.540;9.268;2022-07-22T11:43:55;97513.91;;;36.99;36.93
5283;BME280;15376;48.540;9.268;2022-07-22T11:46:21;97513.44;;;37.57;36.38
5283;BME280;15376;48.540;9.268;2022-07-22T11:48:48;97510.16;;;38.02;34.66
5283;BME280;15376;48.540;9.268;2022-07-22T11:51:13;97519.13;;;37.95;34.46
5283;BME280;15376;48.540;9.268;2022-07-22T11:53:41;97501.81;;;38.02;35.03
5283;BME280;15376;48.540;9.268;2022-07-22T11:56:08;97515.81;;;37.11;36.18
5283;BME280;15376;48.540;9.268;2022-07-22T11:58:35;97509.94;;;37.60;34.96
5283;BME280;15376;48.540;9.268;2022-07-22T12:01:01;97492.25;;;38.15;35.59
5283;BME280;15376;48.540;9.268;2022-07-22T12:03:27;97505.03;;;38.20;34.10
5283;BME280;15376;48.540;9.268;2022-07-22T12:05:54;97491.34;;;37.29;34.30
5283;BME280;15376;48.540;9.268;2022-07-22T12:08:20;97490.16;;;38.28;34.22
5283;BME280;15376;48.540;9.268;2022-07-22T12:10:45;97484.91;;;38.61;32.58
5283;BME280;15376;48.540;9.268;2022-07-22T12:13:11;97486.25;;;37.31;33.83
5283;BME280;15376;48.540;9.268;2022-07-22T12:15:37;97480.97;;;36.66;36.44
5283;BME280;15376;48.540;9.268;2022-07-22T12:18:20;97484.03;;;37.36;36.14
5283;BME280;15376;48.540;9.268;2022-07-22T12:20:47;97490.28;;;37.18;33.91
5283;BME280;15376;48.540;9.268;2022-07-22T12:23:13;97472.25;;;37.90;33.80
5283;BME280;15376;48.540;9.268;2022-07-22T12:25:52;97466.41;;;38.50;31.10
5283;BME280;15376;48.540;9.268;2022-07-22T12:28:18;97466.03;;;37.62;32.98
5283;BME280;15376;48.540;9.268;2022-07-22T12:30:44;97471.31;;;37.04;33.35
5283;BME280;15376;48.540;9.268;2022-07-22T12:33:17;97469.69;;;37.03;32.49
5283;BME280;15376;48.540;9.268;2022-07-22T12:35:43;97449.63;;;38.62;31.73
5283;BME280;15376;48.540;9.268;2022-07-22T12:38:10;97450.66;;;39.68;30.37
5283;BME280;15376;48.540;9.268;2022-07-22T12:40:37;97445.66;;;37.70;31.87
5283;BME280;15376;48.540;9.268;2022-07-22T12:43:05;97449.03;;;37.63;32.70
5283;BME280;15376;48.540;9.268;2022-07-22T12:45:33;97443.41;;;38.30;33.17
5283;BME280;15376;48.540;9.268;2022-07-22T12:50:41;97428.06;;;37.97;31.03
5283;BME280;15376;48.540;9.268;2022-07-22T12:53:08;97431.72;;;37.66;31.61
5283;BME280;15376;48.540;9.268;2022-07-22T12:55:36;97420.31;;;38.45;32.92
5283;BME280;15376;48.540;9.268;2022-07-22T12:58:03;97420.97;;;38.58;31.81
5283;BME280;15376;48.540;9.268;2022-07-22T13:00:33;97410.69;;;38.20;30.88
5283;BME280;15376;48.540;9.268;2022-07-22T13:02:59;97419.47;;;37.52;31.97
5283;BME280;15376;48.540;9.268;2022-07-22T13:05:25;97417.59;;;38.49;31.75
5283;BME280;15376;48.540;9.268;2022-07-22T13:07:51;97415.19;;;38.89;31.11
5283;BME280;15376;48.540;9.268;2022-07-22T13:10:19;97420.81;;;38.51;32.14
5283;BME280;15376;48.540;9.268;2022-07-22T13:12:45;97413.06;;;39.02;32.28
5283;BME280;15376;48.540;9.268;2022-07-22T13:15:11;97424.59;;;38.04;30.96
5283;BME280;15376;48.540;9.268;2022-07-22T13:17:36;97419.28;;;36.82;31.75
5283;BME280;15376;48.540;9.268;2022-07-22T13:20:03;97426.41;;;36.67;33.31
5283;BME280;15376;48.540;9.268;2022-07-22T13:22:29;97408.59;;;38.75;30.08
5283;BME280;15376;48.540;9.268;2022-07-22T13:24:55;97392.41;;;39.49;30.34